»·PEaware :: UAL1399 KGEG-KSEA

UAL1399 :: KGEG-KSEA

FLIGHT INFORMATION

Flight Status: Arrived
Operator:
United Airlines
More flights by this operator :: More flights under this callsign
Pilot: David C. (16084)
Aircraft: EMBRAER EMB-170/175
(E170)
More flights by this aircraft type
Origin: KGEG Spokane Intl
United States
Destination: KSEA Seattle-Tacoma Intl
United States
More flights between these airports :: More routes between these airports
Route: +TEMPL GLASR1
File this flight plan on PilotEdge
Remarks:
Altitude:
(Current/Filed)
24,000ft
Speed:
(Current/Filed)
410kts
Departed: 07-Jan-18 10:46 AM
Arrived: 07-Jan-18 11:30 AM
Distance/Time
Traveled:
193nm/0:44
Distance/Time
To Go:
Arrived

Flight Plot

Page will automatically refresh every two minutes.

Flight plan parsing failed; only flown route is shown


Map Options




Map Legend


Flown Route
Filed Route
Departure Airport
Arrival Airport
Navaid (VOR, NDB)
Fix

Horizontal Profiles

Position Reports

Time Latitude Longitude Heading Altitude Ground
Speed
07-Jan-18 10:16 47.625811 -117.534444 231 2391ft 0kts
07-Jan-18 10:17 47.625811 -117.534444 231 2391ft 0kts
07-Jan-18 10:18 47.625811 -117.534444 231 2391ft 0kts
07-Jan-18 10:19 47.625811 -117.534444 231 2391ft 0kts
07-Jan-18 10:20 47.625811 -117.534444 231 2391ft 0kts
07-Jan-18 10:21 47.625811 -117.534444 231 2391ft 0kts
07-Jan-18 10:22 47.625811 -117.534444 231 2391ft 0kts
07-Jan-18 10:23 47.625811 -117.534444 231 2391ft 0kts
07-Jan-18 10:24 47.625811 -117.534444 231 2391ft 0kts
07-Jan-18 10:25 47.625811 -117.534444 231 2391ft 0kts
07-Jan-18 10:26 47.625811 -117.534444 231 2391ft 0kts
07-Jan-18 10:27 47.625811 -117.534444 231 2391ft 0kts
07-Jan-18 10:28 47.625811 -117.534444 231 2391ft 0kts
07-Jan-18 10:29 47.625811 -117.534444 231 2391ft 0kts
07-Jan-18 10:30 47.625811 -117.534444 231 2391ft 0kts
07-Jan-18 10:31 47.625811 -117.534444 231 2391ft 0kts
07-Jan-18 10:32 47.625811 -117.534444 231 2391ft 0kts
07-Jan-18 10:33 47.625811 -117.534444 231 2391ft 0kts
07-Jan-18 10:34 47.625811 -117.534444 231 2391ft 0kts
07-Jan-18 10:35 47.625811 -117.534444 231 2391ft 0kts
07-Jan-18 10:36 47.625811 -117.534444 231 2391ft 0kts
07-Jan-18 10:37 47.625811 -117.534444 231 2391ft 0kts
07-Jan-18 10:38 47.625811 -117.534444 231 2391ft 0kts
07-Jan-18 10:39 47.625809 -117.534448 231 2391ft 0kts
07-Jan-18 10:40 47.625955 -117.534214 203 2391ft 1kts
07-Jan-18 10:41 47.626069 -117.534227 143 2391ft 0kts
07-Jan-18 10:42 47.626069 -117.534227 143 2391ft 0kts
07-Jan-18 10:43 47.626069 -117.534227 143 2391ft 0kts
07-Jan-18 10:44 47.626069 -117.534227 143 2391ft 0kts
07-Jan-18 10:45 47.626069 -117.534227 143 2391ft 0kts
07-Jan-18 10:46 47.625998 -117.534150 142 2391ft 6kts
07-Jan-18 10:47 47.626940 -117.528772 42 2391ft 24kts
07-Jan-18 10:48 47.632278 -117.520607 70 2391ft 8kts
07-Jan-18 10:49 47.631867 -117.519423 135 2391ft 0kts
07-Jan-18 10:50 47.631867 -117.519423 135 2391ft 0kts
07-Jan-18 10:51 47.631867 -117.519423 135 2391ft 0kts
07-Jan-18 10:52 47.619747 -117.535699 223 2485ft 182kts
07-Jan-18 10:53 47.575330 -117.592505 218 5202ft 223kts
07-Jan-18 10:54 47.540746 -117.664526 263 7793ft 230kts
07-Jan-18 10:55 47.553142 -117.757055 278 11495ft 236kts
07-Jan-18 10:56 47.565427 -117.861088 277 11998ft 258kts
07-Jan-18 10:57 47.576868 -117.965794 277 12000ft 258kts
07-Jan-18 10:58 47.587870 -118.068223 277 14333ft 249kts
07-Jan-18 10:59 47.598811 -118.171249 277 17980ft 257kts
07-Jan-18 11:00 47.609923 -118.276837 277 21243ft 266kts
07-Jan-18 11:01 47.621413 -118.387160 277 24123ft 297kts
07-Jan-18 11:02 47.636188 -118.530471 277 24218ft 371kts
07-Jan-18 11:03 47.651071 -118.676640 277 24230ft 369kts
07-Jan-18 11:04 47.666131 -118.826394 277 24230ft 369kts
07-Jan-18 11:05 47.681072 -118.977019 276 24229ft 370kts
07-Jan-18 11:06 47.695549 -119.125240 276 24227ft 370kts
07-Jan-18 11:07 47.709996 -119.275109 276 24226ft 370kts
07-Jan-18 11:08 47.724116 -119.423672 276 24224ft 370kts
07-Jan-18 11:09 47.736848 -119.572234 275 24205ft 370kts
07-Jan-18 11:10 47.748282 -119.716828 274 24213ft 370kts
07-Jan-18 11:11 47.759958 -119.867101 274 24215ft 370kts
07-Jan-18 11:12 47.771477 -120.017929 274 24219ft 370kts
07-Jan-18 11:13 47.782805 -120.169021 274 24218ft 369kts
07-Jan-18 11:14 47.793962 -120.320567 274 24216ft 370kts
07-Jan-18 11:15 47.804859 -120.471649 274 24220ft 370kts
07-Jan-18 11:16 47.815594 -120.623122 274 24213ft 369kts
07-Jan-18 11:17 47.826017 -120.772853 274 24221ft 369kts
07-Jan-18 11:18 47.836291 -120.923360 274 21783ft 359kts
07-Jan-18 11:19 47.846001 -121.067996 273 19083ft 350kts
07-Jan-18 11:20 47.855346 -121.210392 272 17761ft 350kts
07-Jan-18 11:21 47.863305 -121.333569 272 15657ft 278kts
07-Jan-18 11:22 47.870488 -121.447178 272 13664ft 276kts
07-Jan-18 11:23 47.877511 -121.559560 273 12042ft 271kts
07-Jan-18 11:24 47.882354 -121.669590 258 12024ft 270kts
07-Jan-18 11:25 47.842070 -121.760086 226 12018ft 271kts
07-Jan-18 11:26 47.787636 -121.837097 224 11390ft 267kts
07-Jan-18 11:27 47.736145 -121.907005 225 9199ft 256kts
07-Jan-18 11:28 47.683232 -121.978366 224 7103ft 251kts
07-Jan-18 11:29 47.633818 -122.044722 224 7027ft 248kts
07-Jan-18 11:30 47.590029 -122.114803 254 6229ft 212kts
07-Jan-18 11:31 47.582889 -122.188199 265 6077ft 186kts
07-Jan-18 11:32 47.575093 -122.257224 249 5794ft 188kts
07-Jan-18 11:33 47.528350 -122.301812 199 1879ft 193kts
07-Jan-18 11:34 47.485935 -122.307441 179 1015ft 140kts
07-Jan-18 11:35 47.450568 -122.307785 180 441ft 65kts
07-Jan-18 11:36 47.445764 -122.306727 110 440ft 0kts
07-Jan-18 11:37 47.444639 -122.306224 187 440ft 20kts
07-Jan-18 11:38 47.440003 -122.303700 77 440ft 24kts
07-Jan-18 11:39 47.439336 -122.298214 91 440ft 0kts

Navigation Log

Ident Type
Flight plan parsing failed, navigation log unavailable